< < Back
Terminal Aerodrome Forecast


Current Version              Previous Versions:   1  2  3  4  5  6  7  8  9  

Terminal Aerodrome Forecast

587
FTUS42 KTAE 222300
TAFTLH
TAF
KTLH 222331Z 2300/2324 26004KT 6SM HZ SCT050
     FM230500 00000KT 4SM BR FEW007
     FM230800 00000KT 1SM BR SCT002
      TEMPO 2310/2312 1/2SM FG BKN002
     FM231400 33005KT P6SM SCT040=



Latest METAR

883
SAUS80 KWBC 230700
MTRTLH
METAR KTLH 230653Z AUTO 00000KT 10SM CLR 16/13 A2988 RMK AO2 SLP118
T01560133 $


USA.gov is the U.S. government's official web portal to all federal, state and local government web resources and services.